Pagrindinis puslapis
METAR-TAF:

METAR-TAF

Oro uostai :

Guanare, Venesuela

platuma: 09-01N, ilguma: 069-44W, Aukštis: 163 m

Dabartinis oras

Ataskaita buvo paskelbta 1 valandą ir 6 minutes, ne 23:02 UTC
Vėjas 4 kt iš Šiaurės Rytų
Temperatūra 35°C
Drėgmė 30%
Slėgis 1008 hPa

METAR: SVGU 242302Z AUTO 05004KT NCD 35/15 Q1008

Laikas: 20:08 (00:08 UTC)


TAF: trūkstamas

Orai ataskaitas ir orų prognozės (METAR, TAF).

turimą stotys yra geltonos ir raudonos taškus žemėlapyje.

Perkelti pele per norėdami pamatyti stoties vardą.

Tada spustelėkite, norėdami matyti oro stebėjimo ir prognozės.

Norėdami pakeisti žemėlapį: spustelėkite ant žalios mygtukų su juodo kryžiaus žemyn,; žalią mygtuką su brūkšneliu, jei norite nutolinti; arba žalių rodyklių gretimoms žemėlapius.


METAR-TAF: